sim
Sign-in with your pilot id or email,
or register
Callsign
Passwort

Schedule Details

Flight Number: RYR9822 (3)
Departure: Rome Ciampino Airport (LIRA) at 11:20
Arrival: Bratislava M. R. Stefanik Airport (LZIB) at 13:00
Route: Ryanair Passenger Schedule. Enter filed route here before submitting Pirep.

Weather Information
Getting current METAR information for LIRA 231950Z 10004KT 080V140 CAVOK 18/09 Q1017
Getting current METAR information for LZIB 232000Z 05007KT CAVOK 13/10 Q1017

Schedule Frequency

Route Map